Dades meteomassalio
Diari Summary for Setembre 14, 2017 Units:  Metric    English   Both
« Previous Day
Next Day »
Diari Semanal Mensual Anual Personalitzat
  Maxima: Minima: Mijana:
Temperatura: -17.8 °C -11.9 °C -7.7 °C
Rosada: -17.8 °C -14.3 °C -11.6 °C
Humitat: Humidity % 43 % 65 %
Velocitat del vent: 0 km/h 0 km/h 27.2 km/h
Racha vent: 0 km/h - -
Vent:- - SW
Pressio: 0 hPa 34462.7 hPa -
Pluja: 0 mm    
Historical Graphs
 
 
Tabular Data for Setembre 14, 2017
Time Temperature Dew Point Pressure Wind Wind Speed Wind Gust Humidity Rainfall Rate (Hourly) solar Conditions
-17.8 °C -17.8 °C 0 hPa Calm     Humidity % 0 mm SolarRadiationWatts/m^2 W/m2 Conditions
00:00 -9.1 °C -11.9 °C 34533.8 hPa Calm     72 % 0 mm 0.0 W/m2 CLR
00:05 -9.1 °C -11.8 °C 34520.3 hPa Calm     73 % 0 mm 0.0 W/m2 CLR
00:10 -8.8 °C -11.5 °C 34520.3 hPa Calm     73 % 0 mm 0.0 W/m2 CLR
00:15 -9.1 °C -11.7 °C 34520.3 hPa Calm     74 % 0 mm 0.0 W/m2 CLR
00:20 -9.1 °C -11.7 °C 34520.3 hPa Calm     74 % 0 mm 0.0 W/m2 CLR
00:25 -9.1 °C -11.7 °C 34520.3 hPa Calm     74 % 0 mm 0.0 W/m2 CLR
00:30 -9.1 °C -11.6 °C 34520.3 hPa Calm     75 % 0 mm 0.0 W/m2 CLR
00:35 -9.4 °C -11.9 °C 34520.3 hPa Calm     75 % 0 mm 0.0 W/m2 CLR
00:40 -9.4 °C -11.9 °C 34520.3 hPa Calm     75 % 0 mm 0.0 W/m2 CLR
00:45 -9.4 °C -11.9 °C 34520.3 hPa Calm     75 % 0 mm 0.0 W/m2 CLR
00:50 -9.4 °C -11.8 °C 34520.3 hPa Calm     76 % 0 mm 0.0 W/m2 CLR
00:51 -9.4 °C -11.8 °C 34520.3 hPa Calm     76 % 0 mm 0.0 W/m2 CLR
00:56 -9.4 °C -11.9 °C 34520.3 hPa Calm     75 % 0 mm 0.0 W/m2 CLR
01:01 -9.4 °C -11.9 °C 34510.1 hPa Calm     75 % 0 mm 0.0 W/m2 CLR
01:06 -9.4 °C -11.9 °C 34510.1 hPa Calm     75 % 0 mm 0.0 W/m2 CLR
01:11 -9.4 °C -11.7 °C 34510.1 hPa Calm     77 % 0 mm 0.0 W/m2 CLR
01:16 -9.4 °C -11.6 °C 34510.1 hPa Calm     78 % 0 mm 0.0 W/m2 CLR
01:21 -9.4 °C -11.9 °C 34510.1 hPa Calm     75 % 0 mm 0.0 W/m2 CLR
01:26 -9.8 °C -12.1 °C 34510.1 hPa Calm     76 % 0 mm 0.0 W/m2 CLR
01:31 -9.4 °C -11.7 °C 34510.1 hPa Calm     77 % 0 mm 0.0 W/m2 CLR
01:36 -9.4 °C -11.7 °C 34510.1 hPa Calm     77 % 0 mm 0.0 W/m2 CLR
01:41 -9.8 °C -12 °C 34510.1 hPa Calm     77 % 0 mm 0.0 W/m2 CLR
01:46 -9.8 °C -11.8 °C 34510.1 hPa Calm     78 % 0 mm 0.0 W/m2 CLR
01:51 -9.8 °C -12 °C 34510.1 hPa Calm     77 % 0 mm 0.0 W/m2 CLR
01:56 -10.1 °C -12.3 °C 34496.6 hPa Calm     77 % 0 mm 0.0 W/m2 CLR
02:01 -10.1 °C -12.2 °C 34496.6 hPa Calm     78 % 0 mm 0.0 W/m2 CLR
02:06 -10.1 °C -12.2 °C 34496.6 hPa Calm     78 % 0 mm 0.0 W/m2 CLR
02:11 -10.1 °C -12.1 °C 34496.6 hPa Calm     79 % 0 mm 0.0 W/m2 CLR
02:16 -10.1 °C -12.1 °C 34496.6 hPa Calm     79 % 0 mm 0.0 W/m2 CLR
02:21 -10.4 °C -12.3 °C 34496.6 hPa Calm     79 % 0 mm 0.0 W/m2 CLR
02:26 -10.4 °C -12.3 °C 34496.6 hPa Calm     79 % 0 mm 0.0 W/m2 CLR
02:31 -10.4 °C -12.4 °C 34496.6 hPa Calm     78 % 0 mm 0.0 W/m2 CLR
02:36 -10.4 °C -12.4 °C 34496.6 hPa Calm     78 % 0 mm 0.0 W/m2 CLR
02:41 -10.1 °C -12.2 °C 34496.6 hPa Calm     78 % 0 mm 0.0 W/m2 CLR
02:46 -10.1 °C -12.2 °C 34496.6 hPa Calm     78 % 0 mm 0.0 W/m2 CLR
02:51 -10.1 °C -12.1 °C 34496.6 hPa Calm     79 % 0 mm 0.0 W/m2 CLR
02:56 -10.1 °C -12.1 °C 34496.6 hPa Calm     79 % 0 mm 0.0 W/m2 CLR
03:01 -10.1 °C -11.9 °C 34496.6 hPa Calm     80 % 0 mm 0.0 W/m2 CLR
03:06 -10.1 °C -11.8 °C 34486.4 hPa Calm     81 % 0 mm 0.0 W/m2 CLR
03:11 -10.1 °C -11.8 °C 34486.4 hPa Calm     81 % 0 mm 0.0 W/m2 CLR
03:16 -10.1 °C -11.7 °C 34486.4 hPa Calm     82 % 0 mm 0.0 W/m2 CLR
03:21 -10.1 °C -11.6 °C 34486.4 hPa Calm     83 % 0 mm 0.0 W/m2 CLR
03:26 -10.1 °C -11.6 °C 34486.4 hPa Calm     83 % 0 mm 0.0 W/m2 CLR
03:31 -10.1 °C -11.7 °C 34486.4 hPa Calm     82 % 0 mm 0.0 W/m2 CLR
03:36 -10.4 °C -12.1 °C 34486.4 hPa Calm     82 % 0 mm 0.0 W/m2 CLR
03:41 -10.1 °C -11.7 °C 34486.4 hPa Calm     82 % 0 mm 0.0 W/m2 CLR
03:46 -10.4 °C -11.9 °C 34486.4 hPa Calm     83 % 0 mm 0.0 W/m2 CLR
03:52 -10.4 °C -11.9 °C 34486.4 hPa Calm     83 % 0 mm 0.0 W/m2 CLR
03:57 -10.4 °C -11.9 °C 34486.4 hPa Calm     83 % 0 mm 0.0 W/m2 CLR
04:02 -10.4 °C -11.9 °C 34476.3 hPa Calm     83 % 0 mm 0.0 W/m2 CLR
04:07 -10.7 °C -12.1 °C 34476.3 hPa Calm     84 % 0 mm 0.0 W/m2 CLR
04:12 -10.7 °C -12.1 °C 34476.3 hPa Calm     84 % 0 mm 0.0 W/m2 CLR
04:17 -10.7 °C -12.1 °C 34476.3 hPa Calm     85 % 0 mm 0.0 W/m2 CLR
04:22 -10.7 °C -12.1 °C 34476.3 hPa Calm     85 % 0 mm 0.0 W/m2 CLR
04:27 -10.7 °C -11.9 °C 34476.3 hPa Calm     86 % 0 mm 0.0 W/m2 CLR
04:32 -10.7 °C -12.1 °C 34476.3 hPa Calm     85 % 0 mm 0.0 W/m2 CLR
04:37 -11 °C -12.3 °C 34462.7 hPa Calm     85 % 0 mm 0.0 W/m2 CLR
04:42 -11 °C -12.3 °C 34462.7 hPa Calm     86 % 0 mm 0.0 W/m2 CLR
04:47 -11 °C -12.3 °C 34462.7 hPa Calm     86 % 0 mm 0.0 W/m2 CLR
04:52 -11 °C -12.3 °C 34462.7 hPa Calm     86 % 0 mm 0.0 W/m2 CLR
04:57 -11 °C -12.3 °C 34462.7 hPa Calm     85 % 0 mm 0.0 W/m2 CLR
05:02 -11 °C -12.3 °C 34462.7 hPa Calm     86 % 0 mm 0.0 W/m2 CLR
05:07 -11.3 °C -12.6 °C 34476.3 hPa Calm     86 % 0 mm 0.0 W/m2 CLR
05:12 -11.3 °C -12.6 °C 34462.7 hPa Calm     86 % 0 mm 0.0 W/m2 CLR
05:17 -11.3 °C -12.6 °C 34462.7 hPa Calm     86 % 0 mm 0.0 W/m2 CLR
05:19 -11.3 °C -12.6 °C 34462.7 hPa Calm     86 % 0 mm 0.0 W/m2 CLR
05:20 -11.3 °C -12.6 °C 34462.7 hPa Calm     86 % 0 mm 0.0 W/m2 CLR
05:22 -11.3 °C -12.6 °C 34462.7 hPa Calm     86 % 0 mm 0.0 W/m2 CLR
05:23 -11.3 °C -12.6 °C 34462.7 hPa Calm     86 % 0 mm 0.0 W/m2 CLR
05:25 -11.3 °C -12.6 °C 34462.7 hPa Calm     86 % 0 mm 0.0 W/m2 CLR
05:27 -11.3 °C -12.6 °C 34462.7 hPa Calm     86 % 0 mm 0.0 W/m2 CLR
05:29 -11.3 °C -12.6 °C 34462.7 hPa Calm     86 % 0 mm 0.0 W/m2 CLR
05:32 -11.3 °C -12.6 °C 34462.7 hPa Calm     86 % 0 mm 0.0 W/m2 CLR
05:33 -11.3 °C -12.6 °C 34462.7 hPa Calm     86 % 0 mm 0.0 W/m2 CLR
05:37 -11.3 °C -12.4 °C 34462.7 hPa Calm     87 % 0 mm 0.0 W/m2 CLR
05:42 -11.3 °C -12.4 °C 34462.7 hPa Calm     87 % 0 mm 0.0 W/m2 CLR
05:47 -11.3 °C -12.4 °C 34462.7 hPa Calm     87 % 0 mm 0.0 W/m2 CLR
05:52 -11.3 °C -12.4 °C 34462.7 hPa Calm     87 % 0 mm 0.0 W/m2 CLR
05:57 -11.3 °C -12.4 °C 34462.7 hPa Calm     88 % 0 mm 0.0 W/m2 CLR
06:02 -11.3 °C -12.4 °C 34462.7 hPa Calm     88 % 0 mm 0.0 W/m2 CLR
06:07 -11.3 °C -12.4 °C 34462.7 hPa Calm     88 % 0 mm 0.0 W/m2 CLR
06:12 -11.6 °C -12.7 °C 34462.7 hPa Calm     88 % 0 mm 0.0 W/m2 CLR
06:17 -11.6 °C -12.7 °C 34462.7 hPa Calm     88 % 0 mm 0.0 W/m2 CLR
06:22 -11.6 °C -12.7 °C 34462.7 hPa Calm     88 % 0 mm 0.0 W/m2 CLR
06:27 -11.6 °C -12.7 °C 34462.7 hPa Calm     88 % 0 mm 0.0 W/m2 CLR
06:32 -11.6 °C -12.7 °C 34462.7 hPa Calm     88 % 0 mm 0.0 W/m2 CLR
06:37 -11.6 °C -12.7 °C 34476.3 hPa Calm     88 % 0 mm 0.0 W/m2 CLR
06:43 -11.6 °C -12.7 °C 34476.3 hPa Calm     88 % 0 mm 0.0 W/m2 CLR
06:48 -11.6 °C -12.7 °C 34476.3 hPa Calm     88 % 0 mm 0.0 W/m2 CLR
06:53 -11.6 °C -12.7 °C 34476.3 hPa Calm     87 % 0 mm 0.0 W/m2 CLR
06:58 -11.6 °C -12.7 °C 34476.3 hPa Calm     88 % 0 mm 0.0 W/m2 CLR
07:03 -11.6 °C -12.7 °C 34476.3 hPa Calm     88 % 0 mm 0.0 W/m2 CLR
07:08 -11.6 °C -12.7 °C 34476.3 hPa Calm     88 % 0 mm 0.0 W/m2 CLR
07:13 -11.6 °C -12.7 °C 34476.3 hPa Calm     88 % 0 mm 0.0 W/m2 CLR
07:18 -11.6 °C -12.7 °C 34476.3 hPa Calm     88 % 0 mm 0.0 W/m2 CLR
07:23 -11.9 °C -13.1 °C 34476.3 hPa Calm     87 % 0 mm 0.0 W/m2 CLR
07:28 -11.9 °C -12.9 °C 34476.3 hPa Calm     88 % 0 mm 0.0 W/m2 CLR
07:33 -11.9 °C -12.9 °C 34476.3 hPa Calm     88 % 0 mm 0.0 W/m2 OVC
07:38 -11.9 °C -13.1 °C 34486.4 hPa Calm     87 % 0 mm 0.0 W/m2 OVC
07:43 -11.6 °C -12.7 °C 34476.3 hPa Calm     87 % 0 mm 5.0 W/m2 OVC
07:48 -11.6 °C -12.7 °C 34486.4 hPa Calm     87 % 0 mm 9.0 W/m2 BKN
07:53 -11.6 °C -12.7 °C 34486.4 hPa Calm     87 % 0 mm 12.0 W/m2 BKN
07:58 -11.6 °C -12.7 °C 34486.4 hPa Calm     88 % 0 mm 16.0 W/m2 BKN
08:03 -11.6 °C -12.7 °C 34476.3 hPa Calm     88 % 0 mm 18.0 W/m2 BKN
08:08 -11.6 °C -12.7 °C 34486.4 hPa Calm     88 % 0 mm 25.0 W/m2 BKN
08:13 -11.6 °C -12.7 °C 34486.4 hPa Calm     88 % 0 mm 32.0 W/m2 BKN
08:18 -11.6 °C -12.7 °C 34486.4 hPa Calm     88 % 0 mm 42.0 W/m2 BKN
08:23 -11.6 °C -12.7 °C 34486.4 hPa Calm     87 % 0 mm 53.0 W/m2 SCT
08:28 -11.6 °C -12.9 °C 34486.4 hPa Calm     86 % 0 mm 49.0 W/m2 SCT
08:33 -11.6 °C -12.9 °C 34486.4 hPa Calm     86 % 0 mm 30.0 W/m2 BKN
08:38 -11.3 °C -12.6 °C 34486.4 hPa Calm     86 % 0 mm 32.0 W/m2 BKN
08:43 -11.3 °C -12.7 °C 34486.4 hPa Calm     85 % 0 mm 70.0 W/m2 BKN
08:48 -11 °C -12.4 °C 34486.4 hPa Calm     84 % 0 mm 121.0 W/m2 FEW
08:53 -10.7 °C -12.1 °C 34486.4 hPa Calm     84 % 0 mm 144.0 W/m2 CLR
08:58 -10.7 °C -12.3 °C 34486.4 hPa Calm     82 % 0 mm 162.0 W/m2 CLR
09:03 -10.4 °C -12.1 °C 34486.4 hPa Calm     82 % 0 mm 181.0 W/m2 CLR
09:08 -10.4 °C -12.1 °C 34486.4 hPa Calm     81 % 0 mm 199.0 W/m2 CLR
09:13 -10.1 °C -11.6 °C 34486.4 hPa SSE 17.9 km/h 17.9 km/h 84 % 0 mm 220.0 W/m2 CLR
09:18 -10.1 °C -11.7 °C 34486.4 hPa Calm     82 % 0 mm 236.0 W/m2 CLR
09:23 -9.8 °C -11.3 °C 34486.4 hPa SSW 15 km/h 15 km/h 83 % 0 mm 250.0 W/m2 CLR
09:28 -9.1 °C -10.7 °C 34486.4 hPa South 23.8 km/h 23.8 km/h 83 % 0 mm 265.0 W/m2 CLR
09:33 -8.8 °C -10.5 °C 34486.4 hPa South 23.8 km/h 23.8 km/h 82 % 0 mm 279.0 W/m2 CLR
09:38 -8.5 °C -10.3 °C 34486.4 hPa South 20.8 km/h 20.8 km/h 81 % 0 mm 297.0 W/m2 CLR
09:43 -8.2 °C -10.1 °C 34486.4 hPa WSW 23.3 km/h 23.3 km/h 81 % 0 mm 313.0 W/m2 CLR
09:48 -7.6 °C -9.6 °C 34496.6 hPa WSW 15 km/h 15 km/h 80 % 0 mm 327.0 W/m2 CLR
09:53 -7 °C -9.1 °C 34496.6 hPa SW 18.2 km/h 18.2 km/h 79 % 0 mm 341.0 W/m2 CLR
09:58 -6.7 °C -8.8 °C 34496.6 hPa SW 23.8 km/h 23.8 km/h 79 % 0 mm 359.0 W/m2 CLR
10:03 -6.7 °C -8.8 °C 34496.6 hPa WSW 20.9 km/h 20.9 km/h 78 % 0 mm 373.0 W/m2 CLR
10:08 -6.3 °C -8.7 °C 34496.6 hPa WSW 29.8 km/h 29.8 km/h 77 % 0 mm 387.0 W/m2 CLR
10:13 -6.3 °C -8.8 °C 34510.1 hPa SW 29.8 km/h 29.8 km/h 76 % 0 mm 403.0 W/m2 CLR
10:18 -6.3 °C -8.8 °C 34510.1 hPa SW 32.8 km/h 32.8 km/h 76 % 0 mm 418.0 W/m2 CLR
10:23 -6.3 °C -8.8 °C 34510.1 hPa WSW 31.1 km/h 31.1 km/h 76 % 0 mm 429.0 W/m2 CLR
10:28 -6.1 °C -8.6 °C 34520.3 hPa SW 32.8 km/h 32.8 km/h 75 % 0 mm 443.0 W/m2 CLR
10:33 -6.1 °C -8.5 °C 34520.3 hPa WSW 23.8 km/h 23.8 km/h 76 % 0 mm 457.0 W/m2 CLR
10:38 -6.1 °C -8.8 °C 34520.3 hPa WSW 44.7 km/h 44.7 km/h 73 % 0 mm 471.0 W/m2 CLR
10:53 -6.3 °C -9 °C 34533.8 hPa WSW 26.9 km/h 26.9 km/h 74 % 0 mm 510.0 W/m2 CLR
10:58 -6.3 °C -9 °C 34533.8 hPa WSW 11.9 km/h 11.9 km/h 74 % 0 mm 526.0 W/m2 CLR
11:03 -6.1 °C -8.9 °C 34533.8 hPa WSW 41.7 km/h 41.7 km/h 72 % 0 mm 540.0 W/m2 CLR
11:08 -6.1 °C -8.8 °C 34533.8 hPa SW 20.8 km/h 20.8 km/h 73 % 0 mm 541.0 W/m2 CLR
11:13 -5.7 °C -8.9 °C 34533.8 hPa SW 44.7 km/h 44.7 km/h 70 % 0 mm 563.0 W/m2 CLR
11:18 -5.7 °C -9.1 °C 34533.8 hPa WSW 29.8 km/h 29.8 km/h 69 % 0 mm 570.0 W/m2 CLR
11:23 -5.4 °C -8.7 °C 34533.8 hPa WSW 15 km/h 15 km/h 69 % 0 mm 585.0 W/m2 CLR
11:28 -5.4 °C -9 °C 34533.8 hPa SW 41.7 km/h 41.7 km/h 67 % 0 mm 598.0 W/m2 CLR
11:33 -5.1 °C -8.8 °C 34533.8 hPa SW 41.7 km/h 41.7 km/h 66 % 0 mm 612.0 W/m2 CLR
11:38 -5.1 °C -9 °C 34533.8 hPa WSW 20.9 km/h 20.9 km/h 65 % 0 mm 619.0 W/m2 CLR
11:43 -4.8 °C -8.9 °C 34533.8 hPa SW 31.1 km/h 31.1 km/h 63 % 0 mm 633.0 W/m2 CLR
11:48 -4.8 °C -8.9 °C 34533.8 hPa SW 29.8 km/h 29.8 km/h 63 % 0 mm 642.0 W/m2 CLR
11:53 -4.8 °C -9.1 °C 34533.8 hPa SW 50.7 km/h 50.7 km/h 62 % 0 mm 654.0 W/m2 CLR
11:58 -4.5 °C -8.8 °C 34533.8 hPa WSW 47.6 km/h 47.6 km/h 62 % 0 mm 663.0 W/m2 CLR
12:03 -4.5 °C -8.9 °C 34520.3 hPa WSW 32.8 km/h 32.8 km/h 61 % 0 mm 671.0 W/m2 CLR
12:08 -4.5 °C -9.1 °C 34520.3 hPa SW 41.7 km/h 41.7 km/h 60 % 0 mm 677.0 W/m2 CLR
12:13 -4.2 °C -9.1 °C 34533.8 hPa WSW 53.6 km/h 53.6 km/h 58 % 0 mm 679.0 W/m2 CLR
12:18 -4.2 °C -9.2 °C 34533.8 hPa SW 56.6 km/h 56.6 km/h 57 % 0 mm 696.0 W/m2 CLR
12:23 -4.2 °C -9.2 °C 34520.3 hPa SW 44.7 km/h 44.7 km/h 57 % 0 mm 705.0 W/m2 CLR
12:28 -3.9 °C -8.9 °C 34520.3 hPa WSW 32.8 km/h 32.8 km/h 57 % 0 mm 712.0 W/m2 CLR
12:33 -3.9 °C -8.9 °C 34520.3 hPa SW 44.7 km/h 44.7 km/h 57 % 0 mm 714.0 W/m2 CLR
12:38 -3.9 °C -9.1 °C 34520.3 hPa SSW 59.5 km/h 59.5 km/h 56 % 0 mm 722.0 W/m2 CLR
12:43 -3.9 °C -9.4 °C 34520.3 hPa SSW 50.7 km/h 50.7 km/h 54 % 0 mm 733.0 W/m2 CLR
12:48 -3.6 °C -9.1 °C 34520.3 hPa SSW 69.8 km/h 69.8 km/h 54 % 0 mm 728.0 W/m2 CLR
12:54 -3.6 °C -9.1 °C 34520.3 hPa SW 74.5 km/h 74.5 km/h 54 % 0 mm 742.0 W/m2 CLR
12:59 -3.6 °C -8.8 °C 34520.3 hPa SW 62.6 km/h 62.6 km/h 56 % 0 mm 744.0 W/m2 CLR
13:04 -3.6 °C -8.8 °C 34520.3 hPa WSW 56.6 km/h 56.6 km/h 56 % 0 mm 751.0 W/m2 CLR
13:09 -3.6 °C -9.1 °C 34520.3 hPa WSW 67.3 km/h 67.3 km/h 54 % 0 mm 759.0 W/m2 CLR
13:14 -3.6 °C -9.1 °C 34510.1 hPa SSW 62.6 km/h 62.6 km/h 54 % 0 mm 765.0 W/m2 CLR
13:15 -3.6 °C -9.1 °C 34510.1 hPa WSW 68.6 km/h 68.6 km/h 54 % 0 mm 765.0 W/m2 CLR
13:20 -3.6 °C -9.3 °C 34510.1 hPa SW 62.6 km/h 62.6 km/h 53 % 0 mm 766.0 W/m2 CLR
13:25 -3.6 °C -9.3 °C 34510.1 hPa West 62.1 km/h 62.1 km/h 53 % 0 mm 773.0 W/m2 CLR
13:26 -3.6 °C -9.3 °C 34510.1 hPa SW 62.6 km/h 62.6 km/h 53 % 0 mm 775.0 W/m2 CLR
13:31 -3.3 °C -9 °C 34510.1 hPa WSW 62.6 km/h 62.6 km/h 53 % 0 mm 779.0 W/m2 CLR
13:36 -3.3 °C -9 °C 34510.1 hPa SW 53.6 km/h 53.6 km/h 53 % 0 mm 780.0 W/m2 CLR
13:41 -3.6 °C -9.5 °C 34510.1 hPa West 68.6 km/h 68.6 km/h 52 % 0 mm 782.0 W/m2 CLR
13:46 -3.3 °C -9.2 °C 34510.1 hPa SW 62.6 km/h 62.6 km/h 52 % 0 mm 788.0 W/m2 CLR
13:51 -3.6 °C -9.6 °C 34520.3 hPa WSW 71.5 km/h 71.5 km/h 51 % 0 mm 796.0 W/m2 CLR
13:56 -3.6 °C -9.6 °C 34510.1 hPa SW 65.5 km/h 65.5 km/h 51 % 0 mm 814.0 W/m2 CLR
14:02 -3.3 °C -9.3 °C 34510.1 hPa West 47.6 km/h 47.6 km/h 51 % 0 mm 812.0 W/m2 CLR
14:07 -3.6 °C -9.8 °C 34510.1 hPa West 51.8 km/h 51.8 km/h 50 % 0 mm 893.0 W/m2 CLR
14:12 -3.9 °C -9.9 °C 34510.1 hPa WSW 47.6 km/h 47.6 km/h 51 % 0 mm 167.0 W/m2 CLR
14:17 -3.9 °C -9.9 °C 34510.1 hPa West 57 km/h 57 km/h 51 % 0 mm 214.0 W/m2 CLR
14:22 -3.3 °C -9.3 °C 34510.1 hPa WSW 50.7 km/h 50.7 km/h 51 % 0 mm 814.0 W/m2 CLR
14:27 -2.9 °C -9.2 °C 34510.1 hPa SSW 50.7 km/h 50.7 km/h 50 % 0 mm 921.0 W/m2 CLR
14:32 -3.3 °C -9.7 °C 34510.1 hPa SSW 50.7 km/h 50.7 km/h 49 % 0 mm 285.0 W/m2 CLR
14:37 -2.9 °C -9.6 °C 34510.1 hPa West 68.6 km/h 68.6 km/h 48 % 0 mm 793.0 W/m2 CLR
14:42 -2.9 °C -9.4 °C 34496.6 hPa WSW 62.6 km/h 62.6 km/h 49 % 0 mm 779.0 W/m2 CLR
14:47 -2.9 °C -9.2 °C 34496.6 hPa WSW 53.6 km/h 53.6 km/h 50 % 0 mm 803.0 W/m2 CLR
14:52 -2.9 °C -9.4 °C 34496.6 hPa SW 53.6 km/h 53.6 km/h 49 % 0 mm 816.0 W/m2 CLR
14:57 -2.9 °C -9.4 °C 34496.6 hPa WSW 47.6 km/h 47.6 km/h 49 % 0 mm 844.0 W/m2 CLR
15:02 -3.3 °C -9.7 °C 34496.6 hPa SW 47.6 km/h 47.6 km/h 49 % 0 mm 802.0 W/m2 CLR
15:07 -3.3 °C -9.9 °C 34496.6 hPa WSW 62.6 km/h 62.6 km/h 48 % 0 mm 749.0 W/m2 CLR
15:12 -3.3 °C -10.1 °C 34496.6 hPa West 62.6 km/h 62.6 km/h 47 % 0 mm 756.0 W/m2 CLR
15:17 -3.3 °C -9.7 °C 34486.4 hPa WSW 59.5 km/h 59.5 km/h 49 % 0 mm 729.0 W/m2 CLR
15:22 -2.9 °C -9.8 °C 34496.6 hPa West 56.6 km/h 56.6 km/h 47 % 0 mm 722.0 W/m2 CLR
15:27 -3.3 °C -10.2 °C 34496.6 hPa West 68.6 km/h 68.6 km/h 46 % 0 mm 717.0 W/m2 CLR
15:32 -3.3 °C -10.2 °C 34486.4 hPa West 68.6 km/h 68.6 km/h 46 % 0 mm 708.0 W/m2 CLR
15:37 -2.9 °C -10.2 °C 34486.4 hPa WSW 50.7 km/h 50.7 km/h 45 % 0 mm 700.0 W/m2 CLR
15:42 -2.9 °C -9.9 °C 34486.4 hPa WSW 65.5 km/h 65.5 km/h 46 % 0 mm 693.0 W/m2 CLR
15:47 -2.9 °C -10.2 °C 34486.4 hPa WSW 71.5 km/h 71.5 km/h 45 % 0 mm 684.0 W/m2 CLR
15:52 -2.9 °C -10.2 °C 34486.4 hPa WSW 47.6 km/h 47.6 km/h 45 % 0 mm 677.0 W/m2 CLR
15:57 -3.3 °C -10.6 °C 34486.4 hPa SW 77.7 km/h 77.7 km/h 44 % 0 mm 666.0 W/m2 CLR
16:02 -3.3 °C -10.4 °C 34476.3 hPa WSW 49.2 km/h 49.2 km/h 45 % 0 mm 661.0 W/m2 CLR
16:07 -3.3 °C -10.4 °C 34486.4 hPa SW 69.8 km/h 69.8 km/h 45 % 0 mm 650.0 W/m2 CLR
16:12 -3.3 °C -10.6 °C 34476.3 hPa WSW 80.3 km/h 80.3 km/h 44 % 0 mm 638.0 W/m2 CLR
16:17 -3.3 °C -10.6 °C 34476.3 hPa WSW 68.6 km/h 68.6 km/h 44 % 0 mm 628.0 W/m2 CLR
16:22 -3.6 °C -10.9 °C 34486.4 hPa WSW 68.6 km/h 68.6 km/h 44 % 0 mm 615.0 W/m2 CLR
16:27 -3.3 °C -10.6 °C 34486.4 hPa WSW 77.4 km/h 77.4 km/h 44 % 0 mm 603.0 W/m2 CLR
16:32 -3.6 °C -10.9 °C 34486.4 hPa WSW 64.7 km/h 64.7 km/h 44 % 0 mm 589.0 W/m2 CLR
16:37 -3.6 °C -10.9 °C 34486.4 hPa West 56.6 km/h 56.6 km/h 44 % 0 mm 578.0 W/m2 CLR
16:42 -3.9 °C -11.2 °C 34486.4 hPa WSW 59.5 km/h 59.5 km/h 44 % 0 mm 564.0 W/m2 CLR
16:47 -3.9 °C -11.2 °C 34486.4 hPa WSW 62.6 km/h 62.6 km/h 44 % 0 mm 555.0 W/m2 CLR
16:52 -4.2 °C -11.4 °C 34476.3 hPa West 53.6 km/h 53.6 km/h 44 % 0 mm 543.0 W/m2 CLR
16:57 -3.9 °C -11.2 °C 34476.3 hPa SW 62.6 km/h 62.6 km/h 44 % 0 mm 531.0 W/m2 CLR
17:02 -3.9 °C -11.2 °C 34476.3 hPa WSW 50.7 km/h 50.7 km/h 44 % 0 mm 519.0 W/m2 CLR
17:07 -3.9 °C -11.3 °C 34476.3 hPa WSW 68.6 km/h 68.6 km/h 43 % 0 mm 501.0 W/m2 CLR
17:12 -3.9 °C -11.2 °C 34476.3 hPa West 53.6 km/h 53.6 km/h 44 % 0 mm 489.0 W/m2 CLR
17:18 -3.9 °C -11.2 °C 34476.3 hPa SW 59.5 km/h 59.5 km/h 44 % 0 mm 476.0 W/m2 CLR
17:23 -3.9 °C -11.2 °C 34476.3 hPa West 50.7 km/h 50.7 km/h 44 % 0 mm 459.0 W/m2 CLR
17:28 -4.2 °C -11.4 °C 34476.3 hPa WSW 56.6 km/h 56.6 km/h 44 % 0 mm 445.0 W/m2 CLR
17:33 -4.2 °C -11.4 °C 34476.3 hPa WSW 36.2 km/h 36.2 km/h 44 % 0 mm 432.0 W/m2 CLR
17:38 -4.2 °C -11.3 °C 34476.3 hPa SW 56.6 km/h 56.6 km/h 45 % 0 mm 415.0 W/m2 CLR
17:43 -4.2 °C -11.4 °C 34476.3 hPa West 59.5 km/h 59.5 km/h 44 % 0 mm 401.0 W/m2 CLR
17:48 -4.5 °C -11.6 °C 34476.3 hPa West 59.5 km/h 59.5 km/h 45 % 0 mm 371.0 W/m2 CLR
17:53 -4.5 °C -11.6 °C 34476.3 hPa SW 54.4 km/h 54.4 km/h 45 % 0 mm 241.0 W/m2 CLR
17:58 -4.8 °C -11.6 °C 34476.3 hPa SW 64.7 km/h 64.7 km/h 46 % 0 mm 294.0 W/m2 CLR
18:03 -4.8 °C -11.6 °C 34486.4 hPa WSW 56.6 km/h 56.6 km/h 46 % 0 mm 243.0 W/m2 CLR
18:08 -5.1 °C -11.9 °C 34476.3 hPa WSW 53.6 km/h 53.6 km/h 46 % 0 mm 258.0 W/m2 CLR
18:13 -4.8 °C -11.6 °C 34486.4 hPa WSW 51.8 km/h 52.3 km/h 46 % 0 mm 276.0 W/m2 CLR
18:18 -4.8 °C -11.6 °C 34486.4 hPa SW 65.5 km/h 65.5 km/h 46 % 0 mm 279.0 W/m2 CLR
18:23 -5.1 °C -11.7 °C 34486.4 hPa WSW 62.1 km/h 62.1 km/h 47 % 0 mm 292.0 W/m2 CLR
18:28 -5.1 °C -11.7 °C 34486.4 hPa West 54.4 km/h 54.4 km/h 47 % 0 mm 260.0 W/m2 CLR
18:33 -5.4 °C -12 °C 34486.4 hPa WSW 41.7 km/h 41.7 km/h 47 % 0 mm 264.0 W/m2 CLR
18:38 -5.4 °C -12 °C 34486.4 hPa WSW 53.6 km/h 53.6 km/h 47 % 0 mm 234.0 W/m2 CLR
18:43 -5.4 °C -12 °C 34486.4 hPa SW 53.6 km/h 53.6 km/h 47 % 0 mm 197.0 W/m2 CLR
18:48 -5.7 °C -12.3 °C 34486.4 hPa West 44.7 km/h 44.7 km/h 47 % 0 mm 128.0 W/m2 CLR
18:53 -5.7 °C -12.3 °C 34486.4 hPa WSW 50.7 km/h 50.7 km/h 47 % 0 mm 123.0 W/m2 CLR
18:58 -5.7 °C -12.1 °C 34486.4 hPa WSW 56.6 km/h 56.6 km/h 48 % 0 mm 104.0 W/m2 CLR
19:03 -5.7 °C -12.1 °C 34486.4 hPa SW 53.6 km/h 53.6 km/h 48 % 0 mm 65.0 W/m2 CLR
19:08 -6.1 °C -12.2 °C 34486.4 hPa SW 50.7 km/h 50.7 km/h 49 % 0 mm 70.0 W/m2 FEW
19:13 -6.1 °C -12.2 °C 34496.6 hPa SW 50.7 km/h 50.7 km/h 49 % 0 mm 67.0 W/m2 FEW
19:18 -6.1 °C -12.2 °C 34496.6 hPa SW 26.9 km/h 26.9 km/h 49 % 0 mm 70.0 W/m2 FEW
19:23 -6.3 °C -12.6 °C 34496.6 hPa WSW 35.7 km/h 35.7 km/h 49 % 0 mm 63.0 W/m2 SCT
19:28 -6.3 °C -12.6 °C 34510.1 hPa SSW 15 km/h 15 km/h 49 % 0 mm 58.0 W/m2 SCT
19:33 -6.3 °C -12.6 °C 34510.1 hPa South 26.9 km/h 26.9 km/h 49 % 0 mm 47.0 W/m2 SCT
19:38 -6.3 °C -12.7 °C 34510.1 hPa SW 29.8 km/h 29.8 km/h 48 % 0 mm 40.0 W/m2 BKN
19:43 -6.3 °C -12.7 °C 34510.1 hPa SW 44.7 km/h 44.7 km/h 48 % 0 mm 33.0 W/m2 BKN
19:48 -6.7 °C -12.9 °C 34510.1 hPa SSW 41.7 km/h 41.7 km/h 48 % 0 mm 28.0 W/m2 BKN
19:53 -6.7 °C -12.9 °C 34510.1 hPa SSW 32.8 km/h 32.8 km/h 48 % 0 mm 16.0 W/m2 BKN
19:58 -6.7 °C -12.9 °C 34510.1 hPa SSW 35.7 km/h 35.7 km/h 48 % 0 mm 11.0 W/m2 BKN
20:03 -6.7 °C -12.9 °C 34520.3 hPa SSW 38.8 km/h 38.8 km/h 48 % 0 mm 7.0 W/m2 BKN
20:08 -6.7 °C -12.8 °C 34520.3 hPa SSW 29.8 km/h 29.8 km/h 49 % 0 mm 5.0 W/m2 OVC
20:13 -7 °C -13.1 °C 34520.3 hPa SSW 31.1 km/h 31.1 km/h 49 % 0 mm 0.0 W/m2 OVC
20:18 -7 °C -12.9 °C 34520.3 hPa SW 32.8 km/h 32.8 km/h 50 % 0 mm 5.0 W/m2 OVC
20:23 -7 °C -12.9 °C 34520.3 hPa SSW 47.6 km/h 47.6 km/h 50 % 0 mm 0.0 W/m2 CLR
20:28 -7.3 °C -13.2 °C 34520.3 hPa WSW 47.6 km/h 47.6 km/h 50 % 0 mm 0.0 W/m2 CLR
20:33 -7.3 °C -13.1 °C 34533.8 hPa SW 35.7 km/h 35.7 km/h 51 % 0 mm 0.0 W/m2 CLR
20:38 -7.3 °C -12.9 °C 34533.8 hPa WSW 44.7 km/h 44.7 km/h 52 % 0 mm 0.0 W/m2 CLR
20:43 -7.3 °C -12.9 °C 34533.8 hPa WSW 32.8 km/h 32.8 km/h 52 % 0 mm 0.0 W/m2 CLR
20:48 -7.3 °C -12.9 °C 34533.8 hPa SW 38.8 km/h 38.8 km/h 52 % 0 mm 0.0 W/m2 CLR
20:53 -7.6 °C -13 °C 34533.8 hPa SSW 35.7 km/h 35.7 km/h 53 % 0 mm 0.0 W/m2 CLR
20:58 -7.6 °C -13 °C 34533.8 hPa SW 35.7 km/h 35.7 km/h 53 % 0 mm 0.0 W/m2 CLR
21:03 -7.6 °C -12.9 °C 34544 hPa SSW 50.7 km/h 50.7 km/h 54 % 0 mm 0.0 W/m2 CLR
21:08 -7.6 °C -12.9 °C 34544 hPa SW 44.7 km/h 44.7 km/h 54 % 0 mm 0.0 W/m2 CLR
21:13 -7.6 °C -12.9 °C 34544 hPa WSW 35.7 km/h 35.7 km/h 54 % 0 mm 0.0 W/m2 CLR
21:18 -7.6 °C -12.7 °C 34544 hPa SW 35.7 km/h 35.7 km/h 55 % 0 mm 0.0 W/m2 CLR
21:23 -7.6 °C -12.7 °C 34544 hPa SSW 44.7 km/h 44.7 km/h 55 % 0 mm 0.0 W/m2 CLR
21:28 -7.9 °C -13 °C 34544 hPa SSW 47.6 km/h 47.6 km/h 55 % 0 mm 0.0 W/m2 CLR
21:33 -7.9 °C -13 °C 34544 hPa WSW 46.7 km/h 46.7 km/h 55 % 0 mm 0.0 W/m2 CLR
21:38 -7.9 °C -13 °C 34554.1 hPa SSW 46.7 km/h 46.7 km/h 55 % 0 mm 0.0 W/m2 CLR
21:43 -7.9 °C -13 °C 34554.1 hPa SW 44.7 km/h 44.7 km/h 55 % 0 mm 0.0 W/m2 CLR
21:48 -7.9 °C -13 °C 34554.1 hPa WSW 44.7 km/h 44.7 km/h 55 % 0 mm 0.0 W/m2 CLR
21:53 -7.9 °C -13 °C 34554.1 hPa SW 44.1 km/h 44.1 km/h 55 % 0 mm 0.0 W/m2 CLR
21:58 -7.9 °C -13.2 °C 34554.1 hPa SW 53.6 km/h 53.6 km/h 54 % 0 mm 0.0 W/m2 CLR
22:03 -7.9 °C -13.3 °C 34554.1 hPa SSW 38.8 km/h 38.8 km/h 53 % 0 mm 0.0 W/m2 CLR
22:08 -7.9 °C -13.3 °C 34554.1 hPa SSW 26.9 km/h 26.9 km/h 53 % 0 mm 0.0 W/m2 CLR
22:13 -7.9 °C -13.4 °C 34554.1 hPa SW 41.7 km/h 41.7 km/h 52 % 0 mm 0.0 W/m2 CLR
22:18 -8.2 °C -13.7 °C 34554.1 hPa SW 41.7 km/h 41.7 km/h 52 % 0 mm 0.0 W/m2 CLR
22:23 -8.2 °C -13.7 °C 34554.1 hPa SW 44.7 km/h 44.7 km/h 52 % 0 mm 0.0 W/m2 CLR
22:28 -8.2 °C -13.9 °C 34554.1 hPa SSW 47.6 km/h 47.6 km/h 51 % 0 mm 0.0 W/m2 CLR
22:33 -8.2 °C -13.9 °C 34554.1 hPa SW 29.8 km/h 29.8 km/h 51 % 0 mm 0.0 W/m2 CLR
22:38 -8.2 °C -13.9 °C 34554.1 hPa SSW 29.8 km/h 29.8 km/h 51 % 0 mm 0.0 W/m2 CLR
22:43 -8.2 °C -13.9 °C 34554.1 hPa SSW 32.8 km/h 32.8 km/h 51 % 0 mm 0.0 W/m2 CLR
22:49 -8.2 °C -13.9 °C 34567.7 hPa SSW 29.8 km/h 29.8 km/h 51 % 0 mm 0.0 W/m2 CLR
22:54 -8.2 °C -13.9 °C 34567.7 hPa SSW 29.8 km/h 29.8 km/h 51 % 0 mm 0.0 W/m2 CLR
22:59 -8.2 °C -13.9 °C 34567.7 hPa SSW 29.8 km/h 29.8 km/h 51 % 0 mm 0.0 W/m2 CLR
23:04 -8.2 °C -14.1 °C 34567.7 hPa SW 23.8 km/h 23.8 km/h 50 % 0 mm 0.0 W/m2 CLR
23:09 -8.2 °C -14.1 °C 34567.7 hPa SSW 29.8 km/h 29.8 km/h 50 % 0 mm 0.0 W/m2 CLR
23:14 -8.2 °C -14.1 °C 34567.7 hPa South 29.8 km/h 29.8 km/h 50 % 0 mm 0.0 W/m2 CLR
23:19 -8.2 °C -14.1 °C 34567.7 hPa SSW 41.7 km/h 41.7 km/h 50 % 0 mm 0.0 W/m2 CLR
23:24 -8.2 °C -14.1 °C 34554.1 hPa South 26.9 km/h 26.9 km/h 50 % 0 mm 0.0 W/m2 CLR
23:29 -8.2 °C -14.1 °C 34567.7 hPa South 38.8 km/h 38.8 km/h 50 % 0 mm 0.0 W/m2 CLR
23:34 -8.2 °C -14.1 °C 34567.7 hPa South 41.4 km/h 41.4 km/h 50 % 0 mm 0.0 W/m2 CLR
23:39 -8.2 °C -14.1 °C 34567.7 hPa South 29.8 km/h 29.8 km/h 50 % 0 mm 0.0 W/m2 CLR
23:44 -8.2 °C -14.1 °C 34567.7 hPa SSW 29.8 km/h 29.8 km/h 50 % 0 mm 0.0 W/m2 CLR
23:49 -8.2 °C -14.1 °C 34567.7 hPa South 23.8 km/h 23.8 km/h 50 % 0 mm 0.0 W/m2 CLR
23:54 -8.5 °C -14.3 °C 34567.7 hPa SSW 29.8 km/h 29.8 km/h 50 % 0 mm 0.0 W/m2 CLR
23:59 -8.5 °C -14.3 °C 34554.1 hPa SSW 9 km/h 9 km/h 50 % 0 mm 0.0 W/m2 CLR
Lo Temps de Massalio
Compliments of Weather Underground - 1.25 mb